Research Scientist/Scholar II
| Date Time MST |
Temp °F |
RH % |
DewPt °F |
Wind mph |
Dir ° |
Gust mph |
Dir ° |
Press in Hg |
Solar W/m^2 |
Prec in |
|---|---|---|---|---|---|---|---|---|---|---|
| 2026-05-02 15:50 | 71.5 | 8.8 | 9.1 | 6.6 | 99 | 11.2 | 129 | 24.880 | 514.7 | 0.00 |
| 2026-05-02 15:45 | 71.5 | 9.8 | 11.5 | 4.3 | 164 | 9.7 | 159 | 24.873 | 528.4 | 0.00 |
| 2026-05-02 15:40 | 70.8 | 9.3 | 10.0 | 3.1 | 80 | 7.6 | 67 | 24.843 | 542.3 | 0.00 |
| 2026-05-02 15:35 | 71.7 | 9.0 | 9.9 | 7.1 | 115 | 10.7 | 96 | 24.857 | 556.5 | 0.00 |
| 2026-05-02 15:30 | 72.9 | 9.6 | 12.2 | 6.6 | 111 | 15.6 | 128 | 24.874 | 570.1 | 0.00 |
| 2026-05-02 15:25 | 72.1 | 9.6 | 11.5 | 2.2 | 155 | 6.4 | 144 | 24.874 | 584.1 | 0.00 |
| 2026-05-02 15:20 | 72.0 | 9.8 | 11.9 | 7.1 | 149 | 11.2 | 120 | 24.874 | 598.2 | 0.00 |
| 2026-05-02 15:15 | 70.8 | 9.6 | 10.5 | 4.9 | 40 | 8.9 | 131 | 24.876 | 611.2 | 0.00 |
| 2026-05-02 15:10 | 70.8 | 9.7 | 10.9 | 8.3 | 126 | 12.3 | 124 | 24.878 | 624.2 | 0.00 |
| 2026-05-02 15:05 | 70.9 | 9.4 | 10.3 | 7.1 | 109 | 11.4 | 111 | 24.878 | 637.1 | 0.00 |
| 2026-05-02 15:00 | 71.1 | 10.5 | 12.8 | 10.5 | 122 | 16.1 | 101 | 24.879 | 650.7 | 0.00 |
| 2026-05-02 14:55 | 70.8 | 10.1 | 11.7 | 7.7 | 151 | 13.2 | 65 | 24.878 | 662.5 | 0.00 |
| 2026-05-02 14:50 | 71.3 | 9.5 | 10.8 | 9.7 | 114 | 13.4 | 90 | 24.863 | 674.5 | 0.00 |
| 2026-05-02 14:45 | 71.1 | 10.0 | 11.8 | 5.7 | 98 | 10.1 | 95 | 24.882 | 685.2 | 0.00 |
| 2026-05-02 14:40 | 70.4 | 9.7 | 10.6 | 9.0 | 115 | 18.1 | 86 | 24.885 | 696.6 | 0.00 |
| 2026-05-02 14:35 | 70.7 | 10.1 | 11.7 | 9.1 | 83 | 13.8 | 93 | 24.887 | 709.0 | 0.00 |
| 2026-05-02 14:30 | 71.3 | 10.3 | 12.6 | 6.5 | 98 | 11.3 | 81 | 24.878 | 719.4 | 0.00 |
| 2026-05-02 14:25 | 70.4 | 10.3 | 11.9 | 7.3 | 168 | 12.8 | 137 | 24.884 | 729.1 | 0.00 |
| 2026-05-02 14:20 | 70.7 | 10.5 | 12.5 | 7.1 | 140 | 11.4 | 120 | 24.894 | 737.2 | 0.00 |
| 2026-05-02 14:15 | 70.8 | 10.5 | 12.7 | 6.3 | 125 | 11.9 | 90 | 24.901 | 749.4 | 0.00 |
| 2026-05-02 14:10 | 69.9 | 10.9 | 12.8 | 2.8 | 50 | 5.9 | 164 | 24.910 | 763.0 | 0.00 |
| 2026-05-02 14:05 | 69.6 | 10.8 | 12.4 | 8.7 | 137 | 13.4 | 126 | 24.911 | 772.2 | 0.00 |
| 2026-05-02 14:00 | 69.7 | 10.7 | 12.2 | 8.1 | 132 | 14.5 | 146 | 24.914 | 778.6 | 0.00 |
| 2026-05-02 13:55 | 69.6 | 11.6 | 14.0 | 9.9 | 128 | 13.5 | 127 | 24.904 | 787.9 | 0.00 |
| 2026-05-02 13:50 | 69.6 | 11.3 | 13.4 | 4.7 | 125 | 12.1 | 126 | 24.906 | 800.0 | 0.00 |
| 2026-05-02 13:45 | 69.6 | 11.7 | 14.2 | 7.3 | 132 | 10.6 | 124 | 24.913 | 809.0 | 0.00 |
| 2026-05-02 13:40 | 69.4 | 11.5 | 13.7 | 8.2 | 110 | 11.2 | 137 | 24.910 | 817.0 | 0.00 |
| 2026-05-02 13:35 | 69.8 | 12.0 | 14.9 | 9.0 | 138 | 13.9 | 146 | 24.912 | 824.0 | 0.00 |
| 2026-05-02 13:30 | 69.6 | 12.0 | 14.8 | 8.8 | 89 | 14.7 | 93 | 24.921 | 828.0 | 0.00 |
| 2026-05-02 13:25 | 69.4 | 12.5 | 15.5 | 9.0 | 113 | 12.9 | 111 | 24.922 | 835.0 | 0.00 |
| Date Time MST |
Temp °C |
RH % |
DewPt °C |
Wind m/s |
Dir ° |
Gust m/s |
Dir ° |
Press hPa |
Solar W/m^2 |
Prec mm |
|---|---|---|---|---|---|---|---|---|---|---|
| 2026-05-02 15:50 | 22.0 | 8.8 | -12.7 | 2.9 | 99 | 5.0 | 129 | 842.55 | 514.7 | 0.00 |
| 2026-05-02 15:45 | 22.0 | 9.8 | -11.4 | 1.9 | 164 | 4.4 | 159 | 842.29 | 528.4 | 0.00 |
| 2026-05-02 15:40 | 21.6 | 9.3 | -12.2 | 1.4 | 80 | 3.4 | 67 | 841.26 | 542.3 | 0.00 |
| 2026-05-02 15:35 | 22.0 | 9.0 | -12.3 | 3.2 | 115 | 4.8 | 96 | 841.76 | 556.5 | 0.00 |
| 2026-05-02 15:30 | 22.7 | 9.6 | -11.0 | 3.0 | 111 | 7.0 | 128 | 842.34 | 570.1 | 0.00 |
| 2026-05-02 15:25 | 22.3 | 9.6 | -11.4 | 1.0 | 155 | 2.9 | 144 | 842.33 | 584.1 | 0.00 |
| 2026-05-02 15:20 | 22.2 | 9.8 | -11.2 | 3.2 | 149 | 5.0 | 120 | 842.35 | 598.2 | 0.00 |
| 2026-05-02 15:15 | 21.6 | 9.6 | -12.0 | 2.2 | 40 | 4.0 | 131 | 842.38 | 611.2 | 0.00 |
| 2026-05-02 15:10 | 21.5 | 9.7 | -11.7 | 3.7 | 126 | 5.5 | 124 | 842.46 | 624.2 | 0.00 |
| 2026-05-02 15:05 | 21.6 | 9.4 | -12.0 | 3.2 | 109 | 5.1 | 111 | 842.47 | 637.1 | 0.00 |
| 2026-05-02 15:00 | 21.7 | 10.5 | -10.7 | 4.7 | 122 | 7.2 | 101 | 842.48 | 650.7 | 0.00 |
| 2026-05-02 14:55 | 21.6 | 10.1 | -11.3 | 3.4 | 151 | 5.9 | 65 | 842.47 | 662.5 | 0.00 |
| 2026-05-02 14:50 | 21.8 | 9.5 | -11.8 | 4.3 | 114 | 6.0 | 90 | 841.95 | 674.5 | 0.00 |
| 2026-05-02 14:45 | 21.7 | 10.0 | -11.2 | 2.6 | 98 | 4.5 | 95 | 842.60 | 685.2 | 0.00 |
| 2026-05-02 14:40 | 21.3 | 9.7 | -11.9 | 4.0 | 115 | 8.1 | 86 | 842.70 | 696.6 | 0.00 |
| 2026-05-02 14:35 | 21.5 | 10.1 | -11.3 | 4.1 | 83 | 6.2 | 93 | 842.78 | 709.0 | 0.00 |
| 2026-05-02 14:30 | 21.8 | 10.3 | -10.8 | 2.9 | 98 | 5.1 | 81 | 842.45 | 719.4 | 0.00 |
| 2026-05-02 14:25 | 21.4 | 10.3 | -11.2 | 3.3 | 168 | 5.7 | 137 | 842.65 | 729.1 | 0.00 |
| 2026-05-02 14:20 | 21.5 | 10.5 | -10.8 | 3.2 | 140 | 5.1 | 120 | 843.00 | 737.2 | 0.00 |
| 2026-05-02 14:15 | 21.6 | 10.5 | -10.7 | 2.8 | 125 | 5.3 | 90 | 843.24 | 749.4 | 0.00 |
| 2026-05-02 14:10 | 21.0 | 10.9 | -10.7 | 1.3 | 50 | 2.6 | 164 | 843.54 | 763.0 | 0.00 |
| 2026-05-02 14:05 | 20.9 | 10.8 | -10.9 | 3.9 | 137 | 6.0 | 126 | 843.57 | 772.2 | 0.00 |
| 2026-05-02 14:00 | 20.9 | 10.7 | -11.0 | 3.6 | 132 | 6.5 | 146 | 843.67 | 778.6 | 0.00 |
| 2026-05-02 13:55 | 20.9 | 11.6 | -10.0 | 4.4 | 128 | 6.0 | 127 | 843.34 | 787.9 | 0.00 |
| 2026-05-02 13:50 | 20.9 | 11.3 | -10.3 | 2.1 | 125 | 5.4 | 126 | 843.40 | 800.0 | 0.00 |
| 2026-05-02 13:45 | 20.9 | 11.7 | -9.9 | 3.3 | 132 | 4.7 | 124 | 843.64 | 809.0 | 0.00 |
| 2026-05-02 13:40 | 20.8 | 11.5 | -10.2 | 3.7 | 110 | 5.0 | 137 | 843.55 | 817.0 | 0.00 |
| 2026-05-02 13:35 | 21.0 | 12.0 | -9.5 | 4.0 | 138 | 6.2 | 146 | 843.60 | 824.0 | 0.00 |
| 2026-05-02 13:30 | 20.9 | 12.0 | -9.6 | 3.9 | 89 | 6.6 | 93 | 843.91 | 828.0 | 0.00 |
| 2026-05-02 13:25 | 20.8 | 12.5 | -9.1 | 4.0 | 113 | 5.8 | 111 | 843.97 | 835.0 | 0.00 |
Research Scientist/Scholar II
Cooperative Institute for Research in the Atmosphere
Colorado State University
1375 Campus Delivery
Fort Collins, CO 80523-1375